Have a Safe July 4th! 

Flight Track Log - Related Links

Times and Time Zones

All times are in EDT time to prevent confusion due to time zone crossing. See the PDT4236 flight status page for this flight to view local times or setup timezone preferences in your user account.

Time Position Orientation Groundspeed Altitude Reporting Facility
EDT Latitude Longitude Course Direction KTS MPH feet Rate Location/Type
Sun 04:40:27 PM 38.3961 -82.4561 93° East 185 213 4,100  Level Indianapolis Center
Sun 04:41:29 PM 38.3928 -82.3883 94° East 190 219 5,100 1,065 Climbing Indianapolis Center
Sun 04:42:31 PM 38.3878 -82.3175 95° East 197 227 6,300 1,210 Climbing Indianapolis Center
Sun 04:43:33 PM 38.3833 -82.2528 95° East 188 216 7,600 1,161 Climbing Indianapolis Center
Sun 04:44:00 PM 37.9633 -82.3452 90° East  Level Estimated
Sun 04:44:35 PM 38.3789 -82.1856 95° East 189 217 8,700  Level Indianapolis Center
Sun 04:45:37 PM 38.3739 -82.1169 95° East 193 222 10,000 1,306 Climbing Indianapolis Center
Sun 04:46:39 PM 38.3694 -82.0356 94° East 193 222 11,400 1,210 Climbing Indianapolis Center
Sun 04:47:41 PM 38.3642 -81.9672 96° East 194 223 12,500 1,016 Climbing Indianapolis Center
Sun 04:48:43 PM 38.3592 -81.8978 95° East 197 227 13,500 968 Climbing Indianapolis Center
Sun 04:49:45 PM 38.3542 -81.8281 95° East 198 228 14,500 732 Climbing Indianapolis Center
Sun 04:50:46 PM 38.3464 -81.7589 98° East 202 232 15,000 244 Climbing Indianapolis Center
Sun 04:51:48 PM 38.2997 -81.7022 136° Southeast 239 275 15,000 48 Level Indianapolis Center
Sun 04:52:50 PM 38.2408 -81.6328 137° Southeast 254 292 15,100  Climbing Indianapolis Center
Sun 04:53:52 PM 38.2017 -81.5597 124° Southeast 252 290 15,000 -48 Descending Indianapolis Center
Sun 04:54:54 PM 38.1775 -81.4783 111° Southeast 258 297 15,000  Level Indianapolis Center
Sun 04:55:55 PM 38.1767 -81.3869 91° East 259 298 15,000  Level Indianapolis Center
Sun 04:56:57 PM 38.1786 -81.2956 88° East 259 298 15,000  Level Indianapolis Center
Sun 04:57:59 PM 38.1869 -81.2039 83° East 261 300 15,000  Level Indianapolis Center
Sun 04:59:01 PM 38.1997 -81.0936 82° East 265 305 15,000  Level Indianapolis Center
Sun 05:00:03 PM 38.2094 -81.0022 82° East 263 303 15,000  Level Indianapolis Center
Sun 05:00:45 PM 38.2119 -80.9514 86° East 265 305 15,000 59 Level Washington Center
Sun 05:01:45 PM 38.2097 -80.8614 92° East 259 298 15,100 51 Climbing Washington Center
Sun 05:02:43 PM 38.1781 -80.7772 116° Southeast 254 292 15,100  Level Washington Center
Sun 05:03:43 PM 38.1219 -80.7231 143° Southeast 242 278 15,100  Level Washington Center
Sun 05:04:44 PM 38.0575 -80.6686 146° Southeast 249 287 15,100  Level Washington Center
Sun 05:05:45 PM 37.9969 -80.6197 148° Southeast 255 293 15,100  Level Washington Center
Sun 05:06:45 PM 37.9406 -80.5711 146° Southeast 250 288 15,100  Level Washington Center
Sun 05:07:45 PM 37.8822 -80.5225 147° Southeast 250 288 15,100  Level Washington Center
Sun 05:08:43 PM 37.8278 -80.4769 147° Southeast 250 288 15,100  Level Washington Center
Sun 05:09:44 PM 37.7711 -80.4311 147° Southeast 250 288 15,100  Level Washington Center
Sun 05:10:44 PM 37.7106 -80.3800 146° Southeast 250 288 15,100  Level Washington Center
Sun 05:11:45 PM 37.6458 -80.3261 147° Southeast 250 288 15,100  Level Washington Center
Sun 05:12:45 PM 37.5875 -80.2753 145° Southeast 250 288 15,100  Level Washington Center
Sun 05:13:43 PM 37.5267 -80.2269 148° Southeast 250 288 15,100  Level Washington Center
Sun 05:14:44 PM 37.4681 -80.1789 147° Southeast 250 288 15,100  Level Washington Center
Sun 05:15:43 PM 37.4136 -80.1339 147° Southeast 250 288 15,100  Level Washington Center
Sun 05:16:44 PM 37.3528 -80.0831 146° Southeast 250 288 15,100  Level Washington Center
Sun 05:17:44 PM 37.2872 -80.0506 158° South 250 288 15,100  Level Washington Center
Sun 05:18:46 PM 37.2203 -80.0022 150° Southeast 256 295 15,100  Level Washington Center
Sun 05:19:43 PM 37.1572 -79.9597 152° Southeast 256 295 15,100  Level Washington Center
Sun 05:20:43 PM 37.0961 -79.9169 151° Southeast 256 295 15,100  Level Washington Center
Sun 05:21:44 PM 37.0369 -79.8825 155° Southeast 256 295 15,100 -98 Level Washington Center
Sun 05:22:45 PM 36.9714 -79.8478 157° South 256 295 14,900 -496 Descending Washington Center
Sun 05:23:45 PM 36.8994 -79.8125 159° South 262 302 14,100 -800 Descending Washington Center
Sun 05:25:00 PM 36.8193 -79.8132 189° South  Level FlightAware Approximate
Sun 05:32:00 PM 36.3613 -79.9071 189° South  Level FlightAware Approximate
Sun 05:33:00 PM 36.2958 -79.9204 189° South  Level FlightAware Approximate
Sun 05:34:00 PM 36.2304 -79.9337 189° South  Level FlightAware Approximate
Sun 05:35:00 PM 36.1650 -79.9470 189° South  Level FlightAware Approximate
Sun 05:36:00 PM 36.0999 -79.9625 191° South  Level FlightAware Approximate
Sun 05:37:00 PM 36.0339 -79.9667 180° South  Level FlightAware Approximate
Sun 05:38:00 PM 35.9934 -80.0227 229° Southwest  Level FlightAware Approximate
Sun 05:39:00 PM 35.9531 -80.0792 229° Southwest  Level FlightAware Approximate
Sun 05:40:00 PM 35.9128 -80.1356 229° Southwest  Level FlightAware Approximate

Login

Don't have an account? Register now (free) for customized features, flight alerts, and more!